sensor_id;sensor_type;location;lat;lon;timestamp;P1;durP1;ratioP1;P2;durP2;ratioP2
59790;SDS011;47431;51.640;5.554;2023-10-31T00:02:07;20.80;;;10.55;;
59790;SDS011;47431;51.640;5.554;2023-10-31T00:04:33;24.48;;;11.32;;
59790;SDS011;47431;51.640;5.554;2023-10-31T00:06:58;24.73;;;11.30;;
59790;SDS011;47431;51.640;5.554;2023-10-31T00:09:23;32.67;;;12.43;;
59790;SDS011;47431;51.640;5.554;2023-10-31T00:11:49;30.55;;;12.45;;
59790;SDS011;47431;51.640;5.554;2023-10-31T00:14:14;36.65;;;17.95;;
59790;SDS011;47431;51.640;5.554;2023-10-31T00:16:39;46.88;;;21.30;;
59790;SDS011;47431;51.640;5.554;2023-10-31T00:19:06;50.95;;;26.20;;
59790;SDS011;47431;51.640;5.554;2023-10-31T00:21:32;58.38;;;27.77;;
59790;SDS011;47431;51.640;5.554;2023-10-31T00:23:57;65.10;;;29.77;;
59790;SDS011;47431;51.640;5.554;2023-10-31T00:26:23;80.00;;;36.55;;
59790;SDS011;47431;51.640;5.554;2023-10-31T00:28:48;81.63;;;37.50;;
59790;SDS011;47431;51.640;5.554;2023-10-31T00:31:13;84.72;;;41.25;;
59790;SDS011;47431;51.640;5.554;2023-10-31T00:33:39;85.85;;;39.58;;
59790;SDS011;47431;51.640;5.554;2023-10-31T00:36:05;83.65;;;42.10;;
59790;SDS011;47431;51.640;5.554;2023-10-31T00:38:31;77.53;;;39.10;;
59790;SDS011;47431;51.640;5.554;2023-10-31T00:40:56;80.15;;;41.63;;
59790;SDS011;47431;51.640;5.554;2023-10-31T00:43:21;88.38;;;39.40;;
59790;SDS011;47431;51.640;5.554;2023-10-31T00:45:47;85.22;;;37.80;;
59790;SDS011;47431;51.640;5.554;2023-10-31T00:48:12;76.05;;;41.00;;
59790;SDS011;47431;51.640;5.554;2023-10-31T00:50:37;77.40;;;37.67;;
59790;SDS011;47431;51.640;5.554;2023-10-31T00:53:03;61.38;;;36.78;;
59790;SDS011;47431;51.640;5.554;2023-10-31T00:55:28;65.32;;;31.77;;
59790;SDS011;47431;51.640;5.554;2023-10-31T00:57:54;63.55;;;32.78;;
59790;SDS011;47431;51.640;5.554;2023-10-31T01:00:19;55.72;;;30.50;;
59790;SDS011;47431;51.640;5.554;2023-10-31T01:02:45;53.60;;;28.63;;
59790;SDS011;47431;51.640;5.554;2023-10-31T01:05:10;45.47;;;23.50;;
59790;SDS011;47431;51.640;5.554;2023-10-31T01:07:36;42.22;;;23.33;;
59790;SDS011;47431;51.640;5.554;2023-10-31T01:10:02;40.33;;;21.40;;
59790;SDS011;47431;51.640;5.554;2023-10-31T01:12:28;36.30;;;18.60;;
59790;SDS011;47431;51.640;5.554;2023-10-31T01:14:54;31.83;;;15.68;;
59790;SDS011;47431;51.640;5.554;2023-10-31T01:17:20;33.35;;;17.08;;
59790;SDS011;47431;51.640;5.554;2023-10-31T01:19:46;35.20;;;16.08;;
59790;SDS011;47431;51.640;5.554;2023-10-31T01:22:11;25.08;;;14.57;;
59790;SDS011;47431;51.640;5.554;2023-10-31T01:24:37;18.83;;;12.77;;
59790;SDS011;47431;51.640;5.554;2023-10-31T01:27:02;29.08;;;13.18;;
59790;SDS011;47431;51.640;5.554;2023-10-31T01:29:28;22.83;;;10.77;;
59790;SDS011;47431;51.640;5.554;2023-10-31T01:31:53;24.42;;;11.88;;
59790;SDS011;47431;51.640;5.554;2023-10-31T01:34:19;39.70;;;15.60;;
59790;SDS011;47431;51.640;5.554;2023-10-31T01:36:44;34.72;;;13.68;;
59790;SDS011;47431;51.640;5.554;2023-10-31T01:39:09;39.70;;;15.27;;
59790;SDS011;47431;51.640;5.554;2023-10-31T01:41:35;36.63;;;15.68;;
59790;SDS011;47431;51.640;5.554;2023-10-31T01:44:01;37.78;;;15.70;;
59790;SDS011;47431;51.640;5.554;2023-10-31T01:46:26;41.90;;;17.00;;
59790;SDS011;47431;51.640;5.554;2023-10-31T01:48:52;56.33;;;18.88;;
59790;SDS011;47431;51.640;5.554;2023-10-31T01:51:21;52.20;;;20.52;;
59790;SDS011;47431;51.640;5.554;2023-10-31T01:53:46;65.90;;;21.13;;
59790;SDS011;47431;51.640;5.554;2023-10-31T01:56:12;68.03;;;25.15;;
59790;SDS011;47431;51.640;5.554;2023-10-31T01:58:38;67.53;;;25.05;;
59790;SDS011;47431;51.640;5.554;2023-10-31T02:01:04;77.38;;;27.95;;
59790;SDS011;47431;51.640;5.554;2023-10-31T02:03:31;79.75;;;32.05;;
59790;SDS011;47431;51.640;5.554;2023-10-31T02:05:58;94.35;;;36.25;;
59790;SDS011;47431;51.640;5.554;2023-10-31T02:08:24;94.75;;;39.75;;
59790;SDS011;47431;51.640;5.554;2023-10-31T02:10:50;98.85;;;37.83;;
59790;SDS011;47431;51.640;5.554;2023-10-31T02:13:16;121.80;;;46.58;;
59790;SDS011;47431;51.640;5.554;2023-10-31T02:15:43;116.40;;;46.25;;
59790;SDS011;47431;51.640;5.554;2023-10-31T02:18:09;124.53;;;43.95;;
59790;SDS011;47431;51.640;5.554;2023-10-31T02:20:35;122.32;;;49.40;;
59790;SDS011;47431;51.640;5.554;2023-10-31T02:23:01;126.47;;;47.78;;
59790;SDS011;47431;51.640;5.554;2023-10-31T02:25:27;126.68;;;54.95;;
59790;SDS011;47431;51.640;5.554;2023-10-31T02:27:53;124.47;;;51.25;;
59790;SDS011;47431;51.640;5.554;2023-10-31T02:30:18;147.63;;;54.13;;
59790;SDS011;47431;51.640;5.554;2023-10-31T02:32:44;134.80;;;52.53;;
59790;SDS011;47431;51.640;5.554;2023-10-31T02:35:09;146.60;;;59.53;;
59790;SDS011;47431;51.640;5.554;2023-10-31T02:37:36;144.55;;;67.28;;
59790;SDS011;47431;51.640;5.554;2023-10-31T02:40:01;141.93;;;63.80;;
59790;SDS011;47431;51.640;5.554;2023-10-31T02:42:27;140.70;;;65.82;;
59790;SDS011;47431;51.640;5.554;2023-10-31T02:44:53;146.95;;;57.25;;
59790;SDS011;47431;51.640;5.554;2023-10-31T02:47:18;175.15;;;76.05;;
59790;SDS011;47431;51.640;5.554;2023-10-31T02:49:44;169.38;;;78.75;;
59790;SDS011;47431;51.640;5.554;2023-10-31T02:52:09;161.68;;;70.53;;
59790;SDS011;47431;51.640;5.554;2023-10-31T02:54:35;164.40;;;77.43;;
59790;SDS011;47431;51.640;5.554;2023-10-31T02:57:01;176.60;;;86.43;;
59790;SDS011;47431;51.640;5.554;2023-10-31T02:59:26;172.70;;;75.22;;
59790;SDS011;47431;51.640;5.554;2023-10-31T03:01:52;181.80;;;77.07;;
59790;SDS011;47431;51.640;5.554;2023-10-31T03:04:18;180.63;;;79.78;;
59790;SDS011;47431;51.640;5.554;2023-10-31T03:06:43;177.70;;;70.90;;
59790;SDS011;47431;51.640;5.554;2023-10-31T03:09:08;174.48;;;75.40;;
59790;SDS011;47431;51.640;5.554;2023-10-31T03:11:34;183.70;;;80.95;;
59790;SDS011;47431;51.640;5.554;2023-10-31T03:13:59;165.93;;;71.75;;
59790;SDS011;47431;51.640;5.554;2023-10-31T03:16:25;161.18;;;71.32;;
59790;SDS011;47431;51.640;5.554;2023-10-31T03:18:50;170.50;;;70.03;;
59790;SDS011;47431;51.640;5.554;2023-10-31T03:21:16;153.60;;;74.30;;
59790;SDS011;47431;51.640;5.554;2023-10-31T03:23:49;145.23;;;58.58;;
59790;SDS011;47431;51.640;5.554;2023-10-31T03:26:16;137.05;;;54.83;;
59790;SDS011;47431;51.640;5.554;2023-10-31T03:28:42;146.30;;;63.42;;
59790;SDS011;47431;51.640;5.554;2023-10-31T03:31:09;147.05;;;58.50;;
59790;SDS011;47431;51.640;5.554;2023-10-31T03:33:35;149.77;;;66.93;;
59790;SDS011;47431;51.640;5.554;2023-10-31T03:36:01;152.10;;;61.83;;
59790;SDS011;47431;51.640;5.554;2023-10-31T03:38:26;148.65;;;57.83;;
59790;SDS011;47431;51.640;5.554;2023-10-31T03:40:51;138.70;;;54.40;;
59790;SDS011;47431;51.640;5.554;2023-10-31T03:43:17;148.25;;;62.50;;
59790;SDS011;47431;51.640;5.554;2023-10-31T03:45:43;143.88;;;57.28;;
59790;SDS011;47431;51.640;5.554;2023-10-31T03:48:08;142.57;;;63.55;;
59790;SDS011;47431;51.640;5.554;2023-10-31T03:50:34;157.75;;;57.80;;
59790;SDS011;47431;51.640;5.554;2023-10-31T03:52:59;131.30;;;54.25;;
59790;SDS011;47431;51.640;5.554;2023-10-31T03:55:24;132.88;;;50.40;;
59790;SDS011;47431;51.640;5.554;2023-10-31T03:57:50;133.82;;;64.95;;
59790;SDS011;47431;51.640;5.554;2023-10-31T04:00:15;118.53;;;50.42;;
59790;SDS011;47431;51.640;5.554;2023-10-31T04:02:41;138.50;;;54.58;;
59790;SDS011;47431;51.640;5.554;2023-10-31T04:05:06;128.50;;;51.20;;
59790;SDS011;47431;51.640;5.554;2023-10-31T04:07:32;141.80;;;58.88;;
59790;SDS011;47431;51.640;5.554;2023-10-31T04:09:57;139.30;;;63.60;;
59790;SDS011;47431;51.640;5.554;2023-10-31T04:12:23;136.93;;;56.22;;
59790;SDS011;47431;51.640;5.554;2023-10-31T04:14:48;130.95;;;64.63;;
59790;SDS011;47431;51.640;5.554;2023-10-31T04:17:13;133.23;;;56.78;;
59790;SDS011;47431;51.640;5.554;2023-10-31T04:19:39;143.93;;;59.63;;
59790;SDS011;47431;51.640;5.554;2023-10-31T04:22:05;142.55;;;70.45;;
59790;SDS011;47431;51.640;5.554;2023-10-31T04:24:30;142.25;;;65.85;;
59790;SDS011;47431;51.640;5.554;2023-10-31T04:26:56;150.88;;;60.42;;
59790;SDS011;47431;51.640;5.554;2023-10-31T04:29:22;152.07;;;65.78;;
59790;SDS011;47431;51.640;5.554;2023-10-31T04:31:47;160.65;;;68.45;;
59790;SDS011;47431;51.640;5.554;2023-10-31T04:34:13;141.13;;;63.67;;
59790;SDS011;47431;51.640;5.554;2023-10-31T04:36:38;134.88;;;59.97;;
59790;SDS011;47431;51.640;5.554;2023-10-31T04:39:04;157.55;;;70.28;;
59790;SDS011;47431;51.640;5.554;2023-10-31T04:41:30;156.88;;;66.85;;
59790;SDS011;47431;51.640;5.554;2023-10-31T04:43:55;157.32;;;68.47;;
59790;SDS011;47431;51.640;5.554;2023-10-31T04:46:21;156.32;;;64.85;;
59790;SDS011;47431;51.640;5.554;2023-10-31T04:48:46;148.73;;;65.68;;
59790;SDS011;47431;51.640;5.554;2023-10-31T04:51:12;161.07;;;70.97;;
59790;SDS011;47431;51.640;5.554;2023-10-31T04:53:37;167.00;;;63.83;;
59790;SDS011;47431;51.640;5.554;2023-10-31T04:56:03;149.90;;;61.30;;
59790;SDS011;47431;51.640;5.554;2023-10-31T04:58:29;144.45;;;66.45;;
59790;SDS011;47431;51.640;5.554;2023-10-31T05:00:54;148.57;;;61.78;;
59790;SDS011;47431;51.640;5.554;2023-10-31T05:03:20;143.65;;;61.40;;
59790;SDS011;47431;51.640;5.554;2023-10-31T05:05:45;143.85;;;65.82;;
59790;SDS011;47431;51.640;5.554;2023-10-31T05:08:10;150.63;;;69.35;;
59790;SDS011;47431;51.640;5.554;2023-10-31T05:10:36;143.35;;;62.55;;
59790;SDS011;47431;51.640;5.554;2023-10-31T05:13:01;133.63;;;58.65;;
59790;SDS011;47431;51.640;5.554;2023-10-31T05:15:29;133.80;;;56.28;;
59790;SDS011;47431;51.640;5.554;2023-10-31T05:17:55;129.50;;;57.03;;
59790;SDS011;47431;51.640;5.554;2023-10-31T05:20:20;115.97;;;56.58;;
59790;SDS011;47431;51.640;5.554;2023-10-31T05:22:46;110.57;;;51.20;;
59790;SDS011;47431;51.640;5.554;2023-10-31T05:25:11;116.53;;;50.28;;
59790;SDS011;47431;51.640;5.554;2023-10-31T05:27:37;128.88;;;49.22;;
59790;SDS011;47431;51.640;5.554;2023-10-31T05:30:03;115.82;;;55.35;;
59790;SDS011;47431;51.640;5.554;2023-10-31T05:32:29;130.85;;;52.88;;
59790;SDS011;47431;51.640;5.554;2023-10-31T05:34:54;128.80;;;50.00;;
59790;SDS011;47431;51.640;5.554;2023-10-31T05:37:19;110.60;;;49.22;;
59790;SDS011;47431;51.640;5.554;2023-10-31T05:39:45;139.45;;;49.97;;
59790;SDS011;47431;51.640;5.554;2023-10-31T05:42:10;118.68;;;58.70;;
59790;SDS011;47431;51.640;5.554;2023-10-31T05:44:35;131.30;;;55.15;;
59790;SDS011;47431;51.640;5.554;2023-10-31T05:47:01;115.55;;;55.78;;
59790;SDS011;47431;51.640;5.554;2023-10-31T05:49:26;112.03;;;50.17;;
59790;SDS011;47431;51.640;5.554;2023-10-31T05:51:52;136.23;;;55.90;;
59790;SDS011;47431;51.640;5.554;2023-10-31T05:54:18;112.60;;;56.75;;
59790;SDS011;47431;51.640;5.554;2023-10-31T05:56:44;127.88;;;53.97;;
59790;SDS011;47431;51.640;5.554;2023-10-31T05:59:10;122.75;;;51.33;;
59790;SDS011;47431;51.640;5.554;2023-10-31T06:01:38;119.82;;;51.60;;
59790;SDS011;47431;51.640;5.554;2023-10-31T06:04:03;114.50;;;56.97;;
59790;SDS011;47431;51.640;5.554;2023-10-31T06:06:32;124.20;;;50.15;;
59790;SDS011;47431;51.640;5.554;2023-10-31T06:08:58;113.63;;;50.95;;
59790;SDS011;47431;51.640;5.554;2023-10-31T06:11:25;117.82;;;54.60;;
59790;SDS011;47431;51.640;5.554;2023-10-31T06:13:50;113.28;;;57.55;;
59790;SDS011;47431;51.640;5.554;2023-10-31T06:16:16;112.03;;;55.38;;
59790;SDS011;47431;51.640;5.554;2023-10-31T06:18:41;101.93;;;48.63;;
59790;SDS011;47431;51.640;5.554;2023-10-31T06:21:06;124.00;;;59.83;;
59790;SDS011;47431;51.640;5.554;2023-10-31T06:23:34;110.05;;;55.50;;
59790;SDS011;47431;51.640;5.554;2023-10-31T06:26:01;118.72;;;52.85;;
59790;SDS011;47431;51.640;5.554;2023-10-31T06:28:26;102.38;;;46.13;;
59790;SDS011;47431;51.640;5.554;2023-10-31T06:30:51;100.32;;;46.20;;
59790;SDS011;47431;51.640;5.554;2023-10-31T06:33:17;98.03;;;57.03;;
59790;SDS011;47431;51.640;5.554;2023-10-31T06:35:42;97.53;;;46.55;;
59790;SDS011;47431;51.640;5.554;2023-10-31T06:38:08;100.35;;;49.70;;
59790;SDS011;47431;51.640;5.554;2023-10-31T06:40:33;95.13;;;44.65;;
59790;SDS011;47431;51.640;5.554;2023-10-31T06:42:58;96.60;;;45.13;;
59790;SDS011;47431;51.640;5.554;2023-10-31T06:45:24;78.88;;;41.20;;
59790;SDS011;47431;51.640;5.554;2023-10-31T06:47:49;73.35;;;43.25;;
59790;SDS011;47431;51.640;5.554;2023-10-31T06:50:15;83.97;;;41.40;;
59790;SDS011;47431;51.640;5.554;2023-10-31T06:52:40;67.68;;;39.72;;
59790;SDS011;47431;51.640;5.554;2023-10-31T06:55:06;70.95;;;43.03;;
59790;SDS011;47431;51.640;5.554;2023-10-31T06:57:31;71.13;;;35.83;;
59790;SDS011;47431;51.640;5.554;2023-10-31T06:59:57;67.70;;;40.08;;
59790;SDS011;47431;51.640;5.554;2023-10-31T07:02:22;76.53;;;46.03;;
59790;SDS011;47431;51.640;5.554;2023-10-31T07:04:48;90.60;;;46.35;;
59790;SDS011;47431;51.640;5.554;2023-10-31T07:07:14;74.00;;;42.58;;
59790;SDS011;47431;51.640;5.554;2023-10-31T07:09:39;75.32;;;48.30;;
59790;SDS011;47431;51.640;5.554;2023-10-31T07:12:05;78.80;;;44.53;;
59790;SDS011;47431;51.640;5.554;2023-10-31T07:14:31;86.30;;;51.33;;
59790;SDS011;47431;51.640;5.554;2023-10-31T07:16:56;90.03;;;54.45;;
59790;SDS011;47431;51.640;5.554;2023-10-31T07:19:22;81.20;;;52.33;;
59790;SDS011;47431;51.640;5.554;2023-10-31T07:21:47;90.80;;;61.70;;
59790;SDS011;47431;51.640;5.554;2023-10-31T07:24:12;87.68;;;48.92;;
59790;SDS011;47431;51.640;5.554;2023-10-31T07:26:38;75.70;;;47.67;;
59790;SDS011;47431;51.640;5.554;2023-10-31T07:29:03;76.68;;;46.35;;
59790;SDS011;47431;51.640;5.554;2023-10-31T07:31:29;76.70;;;50.05;;
59790;SDS011;47431;51.640;5.554;2023-10-31T07:33:54;79.68;;;49.17;;
59790;SDS011;47431;51.640;5.554;2023-10-31T07:36:21;86.00;;;49.28;;
59790;SDS011;47431;51.640;5.554;2023-10-31T07:38:46;73.63;;;41.33;;
59790;SDS011;47431;51.640;5.554;2023-10-31T07:41:11;67.78;;;45.60;;
59790;SDS011;47431;51.640;5.554;2023-10-31T07:43:37;72.38;;;52.00;;
59790;SDS011;47431;51.640;5.554;2023-10-31T07:46:02;65.97;;;45.50;;
59790;SDS011;47431;51.640;5.554;2023-10-31T07:48:28;67.43;;;41.72;;
59790;SDS011;47431;51.640;5.554;2023-10-31T07:50:54;70.82;;;39.35;;
59790;SDS011;47431;51.640;5.554;2023-10-31T07:53:19;81.30;;;45.00;;
59790;SDS011;47431;51.640;5.554;2023-10-31T07:55:44;65.10;;;46.42;;
59790;SDS011;47431;51.640;5.554;2023-10-31T07:58:10;65.50;;;42.75;;
59790;SDS011;47431;51.640;5.554;2023-10-31T08:00:35;69.78;;;36.83;;
59790;SDS011;47431;51.640;5.554;2023-10-31T08:03:01;65.85;;;43.47;;
59790;SDS011;47431;51.640;5.554;2023-10-31T08:05:27;61.63;;;40.45;;
59790;SDS011;47431;51.640;5.554;2023-10-31T08:07:53;68.57;;;39.50;;
59790;SDS011;47431;51.640;5.554;2023-10-31T08:10:18;62.13;;;40.05;;
59790;SDS011;47431;51.640;5.554;2023-10-31T08:12:43;55.53;;;39.92;;
59790;SDS011;47431;51.640;5.554;2023-10-31T08:15:09;59.30;;;39.60;;
59790;SDS011;47431;51.640;5.554;2023-10-31T08:17:34;68.28;;;38.08;;
59790;SDS011;47431;51.640;5.554;2023-10-31T08:20:00;49.20;;;31.38;;
59790;SDS011;47431;51.640;5.554;2023-10-31T08:22:28;65.38;;;41.08;;
59790;SDS011;47431;51.640;5.554;2023-10-31T08:24:54;55.42;;;34.95;;
59790;SDS011;47431;51.640;5.554;2023-10-31T08:27:19;45.83;;;36.28;;
59790;SDS011;47431;51.640;5.554;2023-10-31T08:29:45;61.10;;;36.33;;
59790;SDS011;47431;51.640;5.554;2023-10-31T08:32:10;44.17;;;36.20;;
59790;SDS011;47431;51.640;5.554;2023-10-31T08:34:35;41.67;;;32.65;;
59790;SDS011;47431;51.640;5.554;2023-10-31T08:37:01;40.30;;;33.25;;
59790;SDS011;47431;51.640;5.554;2023-10-31T08:39:26;48.40;;;36.17;;
59790;SDS011;47431;51.640;5.554;2023-10-31T08:41:52;50.45;;;38.13;;
59790;SDS011;47431;51.640;5.554;2023-10-31T08:44:21;45.55;;;38.03;;
59790;SDS011;47431;51.640;5.554;2023-10-31T08:46:47;48.75;;;43.60;;
59790;SDS011;47431;51.640;5.554;2023-10-31T08:49:12;50.58;;;41.53;;
59790;SDS011;47431;51.640;5.554;2023-10-31T08:51:39;49.10;;;38.85;;
59790;SDS011;47431;51.640;5.554;2023-10-31T08:54:04;58.22;;;37.75;;
59790;SDS011;47431;51.640;5.554;2023-10-31T08:56:30;46.70;;;37.95;;
59790;SDS011;47431;51.640;5.554;2023-10-31T08:58:56;50.03;;;37.40;;
59790;SDS011;47431;51.640;5.554;2023-10-31T09:01:21;49.85;;;42.88;;
59790;SDS011;47431;51.640;5.554;2023-10-31T09:03:47;46.70;;;38.85;;
59790;SDS011;47431;51.640;5.554;2023-10-31T09:06:12;48.95;;;43.90;;
59790;SDS011;47431;51.640;5.554;2023-10-31T09:08:38;49.40;;;44.53;;
59790;SDS011;47431;51.640;5.554;2023-10-31T09:11:04;47.72;;;40.30;;
59790;SDS011;47431;51.640;5.554;2023-10-31T09:13:30;48.60;;;41.08;;
59790;SDS011;47431;51.640;5.554;2023-10-31T09:15:57;43.55;;;35.35;;
59790;SDS011;47431;51.640;5.554;2023-10-31T09:18:23;41.25;;;35.67;;
59790;SDS011;47431;51.640;5.554;2023-10-31T09:20:49;49.08;;;34.97;;
59790;SDS011;47431;51.640;5.554;2023-10-31T09:23:15;52.38;;;37.47;;
59790;SDS011;47431;51.640;5.554;2023-10-31T09:25:42;44.03;;;34.85;;
59790;SDS011;47431;51.640;5.554;2023-10-31T09:28:07;46.28;;;36.45;;
59790;SDS011;47431;51.640;5.554;2023-10-31T09:30:33;45.85;;;29.27;;
59790;SDS011;47431;51.640;5.554;2023-10-31T09:32:58;40.90;;;32.47;;
59790;SDS011;47431;51.640;5.554;2023-10-31T09:35:23;38.10;;;30.83;;
59790;SDS011;47431;51.640;5.554;2023-10-31T09:37:49;38.15;;;31.30;;
59790;SDS011;47431;51.640;5.554;2023-10-31T09:40:15;48.78;;;36.65;;
59790;SDS011;47431;51.640;5.554;2023-10-31T09:42:41;39.58;;;35.38;;
59790;SDS011;47431;51.640;5.554;2023-10-31T09:45:07;39.28;;;28.70;;
59790;SDS011;47431;51.640;5.554;2023-10-31T09:47:33;34.30;;;30.40;;
59790;SDS011;47431;51.640;5.554;2023-10-31T09:49:59;40.75;;;36.05;;
59790;SDS011;47431;51.640;5.554;2023-10-31T09:52:25;57.75;;;34.22;;
59790;SDS011;47431;51.640;5.554;2023-10-31T09:54:50;43.08;;;29.27;;
59790;SDS011;47431;51.640;5.554;2023-10-31T09:57:17;50.92;;;35.00;;
59790;SDS011;47431;51.640;5.554;2023-10-31T09:59:42;45.67;;;32.90;;
59790;SDS011;47431;51.640;5.554;2023-10-31T10:02:08;41.75;;;36.35;;
59790;SDS011;47431;51.640;5.554;2023-10-31T10:04:34;41.22;;;30.27;;
59790;SDS011;47431;51.640;5.554;2023-10-31T10:07:02;41.15;;;28.80;;
59790;SDS011;47431;51.640;5.554;2023-10-31T10:09:28;37.75;;;31.55;;
59790;SDS011;47431;51.640;5.554;2023-10-31T10:11:55;47.25;;;29.48;;
59790;SDS011;47431;51.640;5.554;2023-10-31T10:14:23;40.30;;;29.40;;
59790;SDS011;47431;51.640;5.554;2023-10-31T10:16:49;41.42;;;30.90;;
59790;SDS011;47431;51.640;5.554;2023-10-31T10:24:17;41.13;;;28.95;;
59790;SDS011;47431;51.640;5.554;2023-10-31T10:26:44;43.80;;;32.15;;
59790;SDS011;47431;51.640;5.554;2023-10-31T10:29:10;54.50;;;31.00;;
59790;SDS011;47431;51.640;5.554;2023-10-31T10:31:35;51.28;;;38.38;;
59790;SDS011;47431;51.640;5.554;2023-10-31T10:34:00;50.60;;;32.08;;
59790;SDS011;47431;51.640;5.554;2023-10-31T10:36:28;41.97;;;31.30;;
59790;SDS011;47431;51.640;5.554;2023-10-31T10:38:57;43.95;;;31.90;;
59790;SDS011;47431;51.640;5.554;2023-10-31T10:41:25;45.75;;;29.27;;
59790;SDS011;47431;51.640;5.554;2023-10-31T10:44:09;49.72;;;31.25;;
59790;SDS011;47431;51.640;5.554;2023-10-31T10:46:38;46.28;;;30.30;;
59790;SDS011;47431;51.640;5.554;2023-10-31T10:49:05;45.92;;;32.00;;
59790;SDS011;47431;51.640;5.554;2023-10-31T10:51:40;48.67;;;29.33;;
59790;SDS011;47431;51.640;5.554;2023-10-31T10:54:26;40.10;;;27.75;;
59790;SDS011;47431;51.640;5.554;2023-10-31T10:57:04;43.45;;;27.55;;
59790;SDS011;47431;51.640;5.554;2023-10-31T10:59:41;36.05;;;29.23;;
59790;SDS011;47431;51.640;5.554;2023-10-31T11:02:08;32.85;;;24.65;;
59790;SDS011;47431;51.640;5.554;2023-10-31T11:04:36;47.22;;;25.90;;
59790;SDS011;47431;51.640;5.554;2023-10-31T11:07:02;46.67;;;26.17;;
59790;SDS011;47431;51.640;5.554;2023-10-31T11:09:28;22.83;;;19.60;;
59790;SDS011;47431;51.640;5.554;2023-10-31T11:11:55;29.60;;;22.55;;
59790;SDS011;47431;51.640;5.554;2023-10-31T11:14:21;38.80;;;26.52;;
59790;SDS011;47431;51.640;5.554;2023-10-31T11:16:54;33.75;;;25.85;;
59790;SDS011;47431;51.640;5.554;2023-10-31T11:19:24;45.67;;;25.75;;
59790;SDS011;47431;51.640;5.554;2023-10-31T11:21:53;43.95;;;26.73;;
59790;SDS011;47431;51.640;5.554;2023-10-31T11:24:20;32.33;;;20.50;;
59790;SDS011;47431;51.640;5.554;2023-10-31T11:26:58;24.15;;;17.45;;
59790;SDS011;47431;51.640;5.554;2023-10-31T11:29:24;29.48;;;23.02;;
59790;SDS011;47431;51.640;5.554;2023-10-31T11:31:50;40.53;;;22.98;;
59790;SDS011;47431;51.640;5.554;2023-10-31T11:34:16;32.33;;;24.10;;
59790;SDS011;47431;51.640;5.554;2023-10-31T11:36:44;32.50;;;23.15;;
59790;SDS011;47431;51.640;5.554;2023-10-31T11:39:12;35.60;;;24.38;;
59790;SDS011;47431;51.640;5.554;2023-10-31T11:41:39;28.85;;;19.80;;
59790;SDS011;47431;51.640;5.554;2023-10-31T11:44:05;33.17;;;23.80;;
59790;SDS011;47431;51.640;5.554;2023-10-31T11:46:30;33.22;;;22.20;;
59790;SDS011;47431;51.640;5.554;2023-10-31T11:48:56;37.40;;;25.13;;
59790;SDS011;47431;51.640;5.554;2023-10-31T11:51:22;22.27;;;17.52;;
59790;SDS011;47431;51.640;5.554;2023-10-31T11:53:48;40.85;;;22.20;;
59790;SDS011;47431;51.640;5.554;2023-10-31T11:56:17;26.58;;;19.20;;
59790;SDS011;47431;51.640;5.554;2023-10-31T11:58:43;45.70;;;19.55;;
59790;SDS011;47431;51.640;5.554;2023-10-31T12:01:09;27.20;;;19.05;;
59790;SDS011;47431;51.640;5.554;2023-10-31T12:03:39;36.08;;;17.30;;
59790;SDS011;47431;51.640;5.554;2023-10-31T12:06:08;31.23;;;20.50;;
59790;SDS011;47431;51.640;5.554;2023-10-31T12:08:36;30.90;;;19.67;;
59790;SDS011;47431;51.640;5.554;2023-10-31T12:13:39;32.20;;;17.95;;
59790;SDS011;47431;51.640;5.554;2023-10-31T12:16:06;23.02;;;17.08;;
59790;SDS011;47431;51.640;5.554;2023-10-31T12:18:33;44.58;;;17.98;;
59790;SDS011;47431;51.640;5.554;2023-10-31T12:21:00;24.45;;;15.32;;
59790;SDS011;47431;51.640;5.554;2023-10-31T12:23:26;25.02;;;18.55;;
59790;SDS011;47431;51.640;5.554;2023-10-31T12:25:51;23.83;;;15.68;;
59790;SDS011;47431;51.640;5.554;2023-10-31T12:28:17;39.83;;;16.35;;
59790;SDS011;47431;51.640;5.554;2023-10-31T12:30:44;52.20;;;17.15;;
59790;SDS011;47431;51.640;5.554;2023-10-31T12:33:11;27.17;;;14.75;;
59790;SDS011;47431;51.640;5.554;2023-10-31T12:35:37;23.27;;;16.85;;
59790;SDS011;47431;51.640;5.554;2023-10-31T12:38:02;24.75;;;15.57;;
59790;SDS011;47431;51.640;5.554;2023-10-31T12:40:28;18.83;;;13.85;;
59790;SDS011;47431;51.640;5.554;2023-10-31T12:42:54;18.80;;;12.85;;
59790;SDS011;47431;51.640;5.554;2023-10-31T12:45:20;22.52;;;14.13;;
59790;SDS011;47431;51.640;5.554;2023-10-31T12:47:59;39.20;;;13.52;;
59790;SDS011;47431;51.640;5.554;2023-10-31T12:50:29;14.88;;;9.75;;
59790;SDS011;47431;51.640;5.554;2023-10-31T12:52:56;18.40;;;10.20;;
59790;SDS011;47431;51.640;5.554;2023-10-31T12:55:23;26.48;;;11.73;;
59790;SDS011;47431;51.640;5.554;2023-10-31T12:57:49;21.23;;;9.75;;
59790;SDS011;47431;51.640;5.554;2023-10-31T13:00:17;12.27;;;8.15;;
59790;SDS011;47431;51.640;5.554;2023-10-31T13:02:49;11.68;;;7.95;;
59790;SDS011;47431;51.640;5.554;2023-10-31T13:05:16;12.82;;;7.28;;
59790;SDS011;47431;51.640;5.554;2023-10-31T13:07:48;12.98;;;8.40;;
59790;SDS011;47431;51.640;5.554;2023-10-31T13:10:15;8.73;;;6.40;;
59790;SDS011;47431;51.640;5.554;2023-10-31T13:12:44;8.93;;;6.82;;
59790;SDS011;47431;51.640;5.554;2023-10-31T13:15:13;12.02;;;6.43;;
59790;SDS011;47431;51.640;5.554;2023-10-31T13:17:39;10.57;;;6.88;;
59790;SDS011;47431;51.640;5.554;2023-10-31T13:20:07;9.57;;;6.68;;
59790;SDS011;47431;51.640;5.554;2023-10-31T13:22:34;20.23;;;8.32;;
59790;SDS011;47431;51.640;5.554;2023-10-31T13:25:01;18.33;;;9.10;;
59790;SDS011;47431;51.640;5.554;2023-10-31T13:27:30;9.68;;;6.15;;
59790;SDS011;47431;51.640;5.554;2023-10-31T13:30:00;7.72;;;4.72;;
59790;SDS011;47431;51.640;5.554;2023-10-31T13:32:26;15.35;;;5.32;;
59790;SDS011;47431;51.640;5.554;2023-10-31T13:34:51;28.63;;;7.97;;
59790;SDS011;47431;51.640;5.554;2023-10-31T13:37:17;12.43;;;6.93;;
59790;SDS011;47431;51.640;5.554;2023-10-31T13:39:42;11.68;;;7.57;;
59790;SDS011;47431;51.640;5.554;2023-10-31T13:42:08;23.05;;;8.00;;
59790;SDS011;47431;51.640;5.554;2023-10-31T13:44:35;25.77;;;8.30;;
59790;SDS011;47431;51.640;5.554;2023-10-31T13:47:01;12.77;;;7.25;;
59790;SDS011;47431;51.640;5.554;2023-10-31T13:49:27;15.10;;;6.50;;
59790;SDS011;47431;51.640;5.554;2023-10-31T13:51:52;17.63;;;7.55;;
59790;SDS011;47431;51.640;5.554;2023-10-31T13:54:18;11.40;;;6.68;;
59790;SDS011;47431;51.640;5.554;2023-10-31T13:56:44;11.93;;;6.30;;
59790;SDS011;47431;51.640;5.554;2023-10-31T13:59:13;11.73;;;6.22;;
59790;SDS011;47431;51.640;5.554;2023-10-31T14:01:39;8.60;;;6.25;;
59790;SDS011;47431;51.640;5.554;2023-10-31T14:04:06;10.40;;;4.95;;
59790;SDS011;47431;51.640;5.554;2023-10-31T14:06:32;9.93;;;5.85;;
59790;SDS011;47431;51.640;5.554;2023-10-31T14:08:58;33.55;;;6.63;;
59790;SDS011;47431;51.640;5.554;2023-10-31T14:11:24;11.95;;;6.10;;
59790;SDS011;47431;51.640;5.554;2023-10-31T14:13:49;11.25;;;4.47;;
59790;SDS011;47431;51.640;5.554;2023-10-31T14:16:17;7.35;;;4.28;;
59790;SDS011;47431;51.640;5.554;2023-10-31T14:18:43;17.05;;;5.10;;
59790;SDS011;47431;51.640;5.554;2023-10-31T14:21:09;21.60;;;6.63;;